Time,TemperatureF,DewpointF,PressureIn,WindDirection,WindDirectionDegrees,WindSpeedMPH,WindSpeedGustMPH,Humidity,HourlyPrecipIn,Conditions,Clouds,dailyrainin,SoftwareType,DateUTC
2013-11-19 00:00:00,54.1,53.3,29.79,SSW,202,3.1,3.1,97,0.00,,---,0.00,VWS V14.01,2013-11-19 08:00:00,
2013-11-19 00:05:00,54.1,53.3,29.79,WSW,248,3.4,11.0,97,0.00,,---,0.00,VWS V14.01,2013-11-19 08:05:00,
2013-11-19 00:10:00,54.1,53.3,29.76,SSW,202,2.0,2.0,97,0.00,,---,0.00,VWS V14.01,2013-11-19 08:10:00,
2013-11-19 00:16:00,54.3,53.5,29.76,SW,225,8.5,8.5,97,0.00,,---,0.00,VWS V14.01,2013-11-19 08:16:00,
2013-11-19 00:20:00,54.5,53.7,29.76,SW,225,2.5,2.5,97,0.00,,---,0.00,VWS V14.01,2013-11-19 08:20:00,
2013-11-19 00:21:00,54.1,53.3,29.79,SSW,202,2.7,2.7,97,0.00,,---,0.00,VWS V14.01,2013-11-19 08:21:00,
2013-11-19 00:26:00,54.1,53.3,29.79,SSW,202,2.9,3.1,97,0.00,,---,0.00,VWS V14.01,2013-11-19 08:26:00,
2013-11-19 00:30:00,54.5,53.7,29.76,SSW,202,3.6,5.4,97,0.00,,---,0.00,VWS V14.01,2013-11-19 08:30:00,
2013-11-19 00:31:00,54.1,53.3,29.79,SSW,202,1.3,2.9,97,0.00,,---,0.00,VWS V14.01,2013-11-19 08:31:00,
2013-11-19 00:36:00,54.1,53.3,29.79,SSE,158,1.1,3.4,97,0.00,,---,0.00,VWS V14.01,2013-11-19 08:36:00,
2013-11-19 00:40:00,54.5,53.7,29.76,SSW,202,0.9,3.6,97,0.00,,---,0.00,VWS V14.01,2013-11-19 08:40:00,
2013-11-19 00:41:00,54.1,53.3,29.79,WSW,248,2.5,2.7,97,0.00,,---,0.00,VWS V14.01,2013-11-19 08:41:00,
2013-11-19 00:46:00,54.1,53.3,29.79,SSW,202,2.0,3.1,97,0.00,,---,0.00,VWS V14.01,2013-11-19 08:46:00,
2013-11-19 00:50:00,54.5,53.7,29.76,WSW,248,0.9,3.4,97,0.00,,---,0.00,VWS V14.01,2013-11-19 08:50:00,
2013-11-19 00:51:00,54.1,53.3,29.79,SSE,158,3.1,3.1,97,0.00,,---,0.00,VWS V14.01,2013-11-19 08:51:00,
2013-11-19 00:56:00,54.3,53.5,29.79,SSE,158,3.1,3.1,97,0.00,,---,0.00,VWS V14.01,2013-11-19 08:56:00,
2013-11-19 01:00:00,54.5,53.7,29.76,WSW,248,0.9,0.9,97,0.00,,---,0.00,VWS V14.01,2013-11-19 09:00:00,
2013-11-19 01:01:00,54.3,53.5,29.79,SE,135,1.6,3.1,97,0.00,,---,0.00,VWS V14.01,2013-11-19 09:01:00,
2013-11-19 01:06:00,54.3,53.5,29.79,SW,225,2.9,3.1,97,0.00,,---,0.00,VWS V14.01,2013-11-19 09:06:00,
2013-11-19 01:10:00,54.3,53.5,29.76,SSW,202,1.3,1.3,97,0.00,,---,0.00,VWS V14.01,2013-11-19 09:10:00,
2013-11-19 01:11:00,54.5,53.7,29.76,SW,225,2.5,2.5,97,0.00,,---,0.00,VWS V14.01,2013-11-19 09:11:00,
2013-11-19 01:16:00,54.5,53.7,29.76,SW,225,2.5,2.5,97,0.00,,---,0.00,VWS V14.01,2013-11-19 09:16:00,
2013-11-19 01:20:00,54.3,53.5,29.76,SSE,158,1.1,3.8,97,0.00,,---,0.00,VWS V14.01,2013-11-19 09:20:00,
2013-11-19 01:21:00,54.5,53.7,29.76,SW,225,2.5,2.5,97,0.00,,---,0.00,VWS V14.01,2013-11-19 09:21:00,
2013-11-19 01:26:00,54.5,53.7,29.76,SSW,202,3.6,5.4,97,0.00,,---,0.00,VWS V14.01,2013-11-19 09:26:00,
2013-11-19 01:30:00,54.3,53.2,29.76,SSE,158,1.1,1.1,96,0.00,,---,0.00,VWS V14.01,2013-11-19 09:30:00,
2013-11-19 01:31:00,54.5,53.7,29.76,SSW,202,3.6,3.6,97,0.00,,---,0.00,VWS V14.01,2013-11-19 09:31:00,
2013-11-19 01:36:00,54.5,53.7,29.76,SSW,202,0.9,3.6,97,0.00,,---,0.00,VWS V14.01,2013-11-19 09:36:00,
2013-11-19 01:40:00,54.3,53.2,29.76,SSW,202,3.8,3.8,96,0.00,,---,0.00,VWS V14.01,2013-11-19 09:40:00,
2013-11-19 01:41:00,54.5,53.7,29.76,SSW,202,3.4,3.4,97,0.00,,---,0.00,VWS V14.01,2013-11-19 09:41:00,
2013-11-19 01:46:00,54.5,53.7,29.76,ESE,112,2.9,3.4,97,0.00,,---,0.00,VWS V14.01,2013-11-19 09:46:00,
2013-11-19 01:50:00,54.3,53.2,29.76,SSW,202,1.6,3.8,96,0.00,,---,0.00,VWS V14.01,2013-11-19 09:50:00,
2013-11-19 01:51:00,54.5,53.7,29.76,WSW,248,0.9,0.9,97,0.00,,---,0.00,VWS V14.01,2013-11-19 09:51:00,
2013-11-19 01:56:00,54.5,53.7,29.76,WSW,248,0.9,0.9,97,0.00,,---,0.00,VWS V14.01,2013-11-19 09:56:00,
2013-11-19 02:00:00,54.3,53.2,29.76,SSE,158,3.1,3.4,96,0.00,,---,0.00,VWS V14.01,2013-11-19 10:00:00,
2013-11-19 02:01:00,54.5,53.7,29.76,WSW,248,0.9,0.9,97,0.00,,---,0.00,VWS V14.01,2013-11-19 10:01:00,
2013-11-19 02:06:00,54.3,53.5,29.76,WSW,248,0.9,0.9,97,0.00,,---,0.00,VWS V14.01,2013-11-19 10:06:00,
2013-11-19 02:10:00,54.3,53.2,29.76,SSE,158,3.1,3.1,96,0.00,,---,0.00,VWS V14.01,2013-11-19 10:10:00,
2013-11-19 02:11:00,54.3,53.5,29.76,South,180,0.9,1.3,97,0.00,,---,0.00,VWS V14.01,2013-11-19 10:11:00,
2013-11-19 02:16:00,54.5,53.7,29.76,SSW,202,1.3,2.0,97,0.00,,---,0.00,VWS V14.01,2013-11-19 10:16:00,
2013-11-19 02:20:00,54.3,53.2,29.76,SSW,202,1.3,3.1,96,0.00,,---,0.00,VWS V14.01,2013-11-19 10:20:00,
2013-11-19 02:21:00,54.3,53.5,29.76,SSE,158,1.1,1.1,97,0.00,,---,0.00,VWS V14.01,2013-11-19 10:21:00,
2013-11-19 02:26:00,54.3,53.2,29.76,SSE,158,1.1,1.1,96,0.00,,---,0.00,VWS V14.01,2013-11-19 10:26:00,
2013-11-19 02:30:00,54.3,53.2,29.76,SSW,202,1.3,1.3,96,0.00,,---,0.00,VWS V14.01,2013-11-19 10:30:00,
2013-11-19 02:31:00,54.3,53.2,29.76,SSE,158,1.1,1.1,96,0.00,,---,0.00,VWS V14.01,2013-11-19 10:31:00,
2013-11-19 02:36:00,54.3,53.2,29.76,SSE,158,1.1,1.1,96,0.00,,---,0.00,VWS V14.01,2013-11-19 10:36:00,
2013-11-19 02:40:00,54.5,53.4,29.76,SSW,202,1.3,1.3,96,0.00,,---,0.00,VWS V14.01,2013-11-19 10:40:00,
2013-11-19 02:41:00,54.3,53.2,29.76,SSW,202,3.8,3.8,96,0.00,,---,0.00,VWS V14.01,2013-11-19 10:41:00,
2013-11-19 02:46:00,54.3,53.2,29.76,SSW,202,1.6,3.8,96,0.00,,---,0.00,VWS V14.01,2013-11-19 10:46:00,
2013-11-19 02:50:00,54.5,53.4,29.76,WSW,248,1.6,1.6,96,0.00,,---,0.00,VWS V14.01,2013-11-19 10:50:00,
2013-11-19 02:51:00,54.3,53.2,29.76,SSE,158,3.4,3.4,96,0.00,,---,0.00,VWS V14.01,2013-11-19 10:51:00,
2013-11-19 02:56:00,54.3,53.2,29.76,SSE,158,3.4,3.4,96,0.00,,---,0.00,VWS V14.01,2013-11-19 10:56:00,
2013-11-19 03:00:00,54.5,53.4,29.76,SSW,202,1.6,1.6,96,0.00,,---,0.00,VWS V14.01,2013-11-19 11:00:00,
2013-11-19 03:01:00,54.3,53.2,29.76,SSE,158,3.1,3.1,96,0.00,,---,0.00,VWS V14.01,2013-11-19 11:01:00,
2013-11-19 03:06:00,54.3,53.2,29.76,SSE,158,3.1,3.1,96,0.00,,---,0.00,VWS V14.01,2013-11-19 11:06:00,
2013-11-19 03:10:00,54.5,53.4,29.76,WSW,248,3.4,4.5,96,0.00,,---,0.00,VWS V14.01,2013-11-19 11:10:00,
2013-11-19 03:11:00,54.3,53.2,29.76,SSE,158,3.1,3.1,96,0.00,,---,0.00,VWS V14.01,2013-11-19 11:11:00,
2013-11-19 03:16:00,54.3,53.2,29.76,SSE,158,3.1,3.1,96,0.00,,---,0.00,VWS V14.01,2013-11-19 11:16:00,
2013-11-19 03:20:00,54.5,53.4,29.76,SSW,202,2.9,3.4,96,0.00,,---,0.00,VWS V14.01,2013-11-19 11:20:00,
2013-11-19 03:21:00,54.3,53.2,29.76,SSW,202,1.3,1.3,96,0.00,,---,0.00,VWS V14.01,2013-11-19 11:21:00,
2013-11-19 03:26:00,54.3,53.2,29.76,SSW,202,1.3,1.3,96,0.00,,---,0.00,VWS V14.01,2013-11-19 11:26:00,
2013-11-19 03:30:00,54.7,53.6,29.76,SSW,202,2.9,2.9,96,0.00,,---,0.00,VWS V14.01,2013-11-19 11:30:00,
2013-11-19 03:31:00,54.5,53.4,29.76,SSW,202,1.3,1.3,96,0.00,,---,0.00,VWS V14.01,2013-11-19 11:31:00,
2013-11-19 03:37:00,54.5,53.4,29.76,SSW,202,1.3,1.3,96,0.00,,---,0.00,VWS V14.01,2013-11-19 11:37:00,
2013-11-19 03:40:00,54.7,53.6,29.76,SSW,202,2.9,2.9,96,0.00,,---,0.00,VWS V14.01,2013-11-19 11:40:00,
2013-11-19 03:42:00,54.5,53.4,29.76,SSW,202,1.3,1.3,96,0.00,,---,0.00,VWS V14.01,2013-11-19 11:42:00,
2013-11-19 03:47:00,54.5,53.4,29.76,WSW,248,1.6,1.6,96,0.00,,---,0.00,VWS V14.01,2013-11-19 11:47:00,
2013-11-19 03:50:00,54.7,53.6,29.76,SSW,202,0.9,3.6,96,0.00,,---,0.00,VWS V14.01,2013-11-19 11:50:00,
2013-11-19 03:52:00,54.5,53.4,29.76,WSW,248,1.6,1.6,96,0.00,,---,0.00,VWS V14.01,2013-11-19 11:52:00,
2013-11-19 03:57:00,54.5,53.4,29.76,SSW,202,1.6,1.6,96,0.00,,---,0.00,VWS V14.01,2013-11-19 11:57:00,
2013-11-19 04:00:00,54.9,53.7,29.76,South,180,0.0,2.9,96,0.00,,---,0.00,VWS V14.01,2013-11-19 12:00:00,
2013-11-19 04:02:00,54.5,53.4,29.76,SSW,202,4.5,4.5,96,0.00,,---,0.00,VWS V14.01,2013-11-19 12:02:00,
2013-11-19 04:07:00,54.5,53.4,29.76,WSW,248,3.4,4.5,96,0.00,,---,0.00,VWS V14.01,2013-11-19 12:07:00,
2013-11-19 04:10:00,54.9,53.7,29.76,SSW,202,1.3,2.2,96,0.00,,---,0.00,VWS V14.01,2013-11-19 12:10:00,
2013-11-19 04:12:00,54.5,53.4,29.76,WSW,248,3.4,3.4,96,0.00,,---,0.00,VWS V14.01,2013-11-19 12:12:00,
2013-11-19 04:17:00,54.5,53.4,29.76,SSW,202,2.9,3.4,96,0.00,,---,0.00,VWS V14.01,2013-11-19 12:17:00,
2013-11-19 04:20:00,54.9,53.7,29.76,SSW,202,0.0,3.1,96,0.00,,---,0.00,VWS V14.01,2013-11-19 12:20:00,
2013-11-19 04:22:00,54.5,53.4,29.76,SSW,202,2.9,2.9,96,0.00,,---,0.00,VWS V14.01,2013-11-19 12:22:00,
2013-11-19 04:27:00,54.7,53.6,29.76,SSW,202,2.9,2.9,96,0.00,,---,0.00,VWS V14.01,2013-11-19 12:27:00,
2013-11-19 04:30:00,55.0,53.9,29.76,SSW,202,0.0,0.0,96,0.00,,---,0.00,VWS V14.01,2013-11-19 12:30:00,
2013-11-19 04:32:00,54.7,53.6,29.76,SSW,202,2.9,2.9,96,0.00,,---,0.00,VWS V14.01,2013-11-19 12:32:00,
2013-11-19 04:37:00,54.7,53.6,29.76,SSW,202,2.9,2.9,96,0.00,,---,0.00,VWS V14.01,2013-11-19 12:37:00,
2013-11-19 04:40:00,55.0,53.9,29.76,SSW,202,1.3,1.6,96,0.00,,---,0.00,VWS V14.01,2013-11-19 12:40:00,
2013-11-19 04:42:00,54.7,53.6,29.76,SSW,202,3.6,3.6,96,0.00,,---,0.00,VWS V14.01,2013-11-19 12:42:00,
2013-11-19 04:47:00,54.7,53.6,29.76,SSW,202,0.9,3.6,96,0.00,,---,0.00,VWS V14.01,2013-11-19 12:47:00,
2013-11-19 04:50:00,55.0,53.9,29.76,SSW,202,2.2,2.2,96,0.00,,---,0.00,VWS V14.01,2013-11-19 12:50:00,
2013-11-19 04:52:00,54.7,53.6,29.76,SSW,202,0.9,0.9,96,0.00,,---,0.00,VWS V14.01,2013-11-19 12:52:00,
2013-11-19 04:57:00,54.9,53.7,29.76,SSW,202,2.7,2.9,96,0.00,,---,0.00,VWS V14.01,2013-11-19 12:57:00,
2013-11-19 05:00:00,55.0,53.9,29.76,SSW,202,4.3,7.6,96,0.00,,---,0.00,VWS V14.01,2013-11-19 13:00:00,
2013-11-19 05:02:00,54.9,53.7,29.76,South,180,0.0,0.0,96,0.00,,---,0.00,VWS V14.01,2013-11-19 13:02:00,
2013-11-19 05:07:00,54.9,53.7,29.76,SSW,202,2.2,2.2,96,0.00,,---,0.00,VWS V14.01,2013-11-19 13:07:00,
2013-11-19 05:10:00,55.0,53.9,29.76,South,180,1.6,4.3,96,0.00,,---,0.00,VWS V14.01,2013-11-19 13:10:00,
2013-11-19 05:12:00,54.9,53.7,29.76,SSE,158,2.0,3.1,96,0.00,,---,0.00,VWS V14.01,2013-11-19 13:12:00,
2013-11-19 05:17:00,54.9,53.7,29.76,SSW,202,0.0,3.1,96,0.00,,---,0.00,VWS V14.01,2013-11-19 13:17:00,
2013-11-19 05:20:00,55.0,53.9,29.76,South,180,0.0,7.8,96,0.00,,---,0.00,VWS V14.01,2013-11-19 13:20:00,
2013-11-19 05:22:00,54.9,53.7,29.76,SSW,202,0.0,0.0,96,0.00,,---,0.00,VWS V14.01,2013-11-19 13:22:00,
2013-11-19 05:27:00,54.9,53.7,29.76,SSW,202,0.0,0.0,96,0.00,,---,0.00,VWS V14.01,2013-11-19 13:27:00,
2013-11-19 05:30:00,55.2,54.1,29.76,SSW,202,2.0,2.0,96,0.00,,---,0.00,VWS V14.01,2013-11-19 13:30:00,
2013-11-19 05:32:00,55.0,53.9,29.76,SSW,202,1.1,1.1,96,0.00,,---,0.00,VWS V14.01,2013-11-19 13:32:00,
2013-11-19 05:37:00,55.0,53.9,29.76,SSW,202,0.9,1.6,96,0.00,,---,0.00,VWS V14.01,2013-11-19 13:37:00,
2013-11-19 05:40:00,55.2,54.1,29.76,SSW,202,0.0,4.7,96,0.00,,---,0.00,VWS V14.01,2013-11-19 13:40:00,
2013-11-19 05:42:00,55.0,53.9,29.76,SSW,202,1.3,1.3,96,0.00,,---,0.00,VWS V14.01,2013-11-19 13:42:00,
2013-11-19 05:47:00,55.0,53.9,29.76,SSW,202,2.2,2.2,96,0.00,,---,0.00,VWS V14.01,2013-11-19 13:47:00,
2013-11-19 05:50:00,55.2,54.1,29.76,WSW,248,1.6,2.7,96,0.00,,---,0.00,VWS V14.01,2013-11-19 13:50:00,
2013-11-19 05:52:00,54.9,53.7,29.76,SSW,202,2.2,2.2,96,0.00,,---,0.00,VWS V14.01,2013-11-19 13:52:00,
2013-11-19 05:57:00,54.9,53.7,29.76,SSW,202,0.0,7.6,96,0.00,,---,0.00,VWS V14.01,2013-11-19 13:57:00,
2013-11-19 06:00:00,55.2,54.1,29.76,SSW,202,0.0,4.9,96,0.00,,---,0.00,VWS V14.01,2013-11-19 14:00:00,
2013-11-19 06:02:00,55.0,53.9,29.76,SSW,202,1.1,4.3,96,0.00,,---,0.00,VWS V14.01,2013-11-19 14:02:00,
2013-11-19 06:07:00,55.0,53.9,29.76,SSW,202,2.2,4.3,96,0.00,,---,0.00,VWS V14.01,2013-11-19 14:07:00,
2013-11-19 06:10:00,55.2,54.1,29.80,SSW,202,2.2,3.8,96,0.00,,---,0.00,VWS V14.01,2013-11-19 14:10:00,
2013-11-19 06:12:00,55.0,53.9,29.76,South,180,0.0,7.8,96,0.00,,---,0.00,VWS V14.01,2013-11-19 14:12:00,
2013-11-19 06:17:00,55.0,53.9,29.76,NNE,22,2.0,7.8,96,0.00,,---,0.00,VWS V14.01,2013-11-19 14:17:00,
2013-11-19 06:23:00,55.0,53.9,29.76,South,180,0.0,0.0,96,0.00,,---,0.00,VWS V14.01,2013-11-19 14:23:00,
2013-11-19 06:28:00,55.2,54.1,29.76,WSW,248,0.0,0.0,96,0.00,,---,0.00,VWS V14.01,2013-11-19 14:28:00,
2013-11-19 06:30:00,55.2,54.1,29.76,SSW,202,2.0,2.0,96,0.00,,---,0.00,VWS V14.01,2013-11-19 14:30:00,
2013-11-19 06:35:00,55.2,54.1,29.76,SW,225,0.0,2.0,96,0.00,,---,0.00,VWS V14.01,2013-11-19 14:35:00,
2013-11-19 06:40:00,55.2,54.1,29.76,SSW,202,0.0,4.7,96,0.00,,---,0.00,VWS V14.01,2013-11-19 14:40:00,
2013-11-19 06:45:00,55.2,54.1,29.76,SSW,202,1.3,2.7,96,0.00,,---,0.00,VWS V14.01,2013-11-19 14:45:00,
2013-11-19 06:50:00,55.2,54.1,29.76,WSW,248,1.6,1.6,96,0.00,,---,0.00,VWS V14.01,2013-11-19 14:50:00,
2013-11-19 06:55:00,55.2,54.1,29.76,SW,225,2.7,4.9,96,0.00,,---,0.00,VWS V14.01,2013-11-19 14:55:00,
2013-11-19 07:00:00,55.2,54.1,29.76,SSW,202,0.0,0.0,96,0.00,,---,0.00,VWS V14.01,2013-11-19 15:00:00,
2013-11-19 07:05:00,55.2,54.1,29.79,SSW,202,1.1,3.8,96,0.00,,---,0.00,VWS V14.01,2013-11-19 15:05:00,
2013-11-19 07:10:00,55.2,54.1,29.79,SSW,202,1.3,2.2,96,0.00,,---,0.00,VWS V14.01,2013-11-19 15:10:00,
2013-11-19 07:15:00,55.4,54.3,29.79,SSW,202,2.7,2.7,96,0.00,,---,0.00,VWS V14.01,2013-11-19 15:15:00,
2013-11-19 07:20:00,55.4,54.3,29.79,SSW,202,1.3,1.3,96,0.00,,---,0.00,VWS V14.01,2013-11-19 15:20:00,
2013-11-19 07:25:00,55.4,54.3,29.79,SW,225,0.0,1.6,96,0.00,,---,0.00,VWS V14.01,2013-11-19 15:25:00,
2013-11-19 07:30:00,55.4,54.3,29.79,SSW,202,0.0,0.0,96,0.00,,---,0.00,VWS V14.01,2013-11-19 15:30:00,
2013-11-19 07:35:00,55.4,54.3,29.79,SSW,202,0.0,1.6,96,0.00,,---,0.00,VWS V14.01,2013-11-19 15:35:00,
2013-11-19 07:40:00,55.4,54.3,29.79,SSW,202,0.9,0.9,96,0.00,,---,0.00,VWS V14.01,2013-11-19 15:40:00,
2013-11-19 07:45:00,55.4,54.3,29.79,SSW,202,0.0,2.2,96,0.00,,---,0.00,VWS V14.01,2013-11-19 15:45:00,
2013-11-19 07:50:00,55.6,54.5,29.79,SSW,202,0.0,2.5,96,0.00,,---,0.00,VWS V14.01,2013-11-19 15:50:00,
2013-11-19 07:55:00,55.4,54.3,29.79,SW,225,2.9,2.9,96,0.00,,---,0.00,VWS V14.01,2013-11-19 15:55:00,
2013-11-19 08:00:00,55.4,54.3,29.79,South,180,2.5,2.5,96,0.00,,---,0.00,VWS V14.01,2013-11-19 16:00:00,
2013-11-19 08:05:00,55.4,54.3,29.79,SSW,202,0.0,3.1,96,0.00,,---,0.00,VWS V14.01,2013-11-19 16:05:00,
2013-11-19 08:10:00,55.6,54.5,29.76,SSW,202,2.0,3.1,96,0.00,,---,0.00,VWS V14.01,2013-11-19 16:10:00,
2013-11-19 08:15:00,55.6,54.5,29.76,SSW,202,1.6,2.5,96,0.00,,---,0.00,VWS V14.01,2013-11-19 16:15:00,
2013-11-19 08:20:00,55.6,54.5,29.79,SSW,202,2.0,2.0,96,0.00,,---,0.00,VWS V14.01,2013-11-19 16:20:00,
2013-11-19 08:25:00,55.6,54.5,29.79,SSW,202,2.7,4.3,96,0.00,,---,0.00,VWS V14.01,2013-11-19 16:25:00,
2013-11-19 08:30:00,55.6,54.5,29.79,SSE,158,3.6,3.6,96,0.00,,---,0.00,VWS V14.01,2013-11-19 16:30:00,
2013-11-19 08:35:00,55.6,54.5,29.79,WSW,248,2.5,3.6,96,0.00,,---,0.00,VWS V14.01,2013-11-19 16:35:00,
2013-11-19 08:40:00,55.6,54.5,29.79,SSW,202,1.6,1.6,96,0.00,,---,0.00,VWS V14.01,2013-11-19 16:40:00,
2013-11-19 08:45:00,55.4,54.3,29.79,SSE,158,0.0,3.8,96,0.00,,---,0.00,VWS V14.01,2013-11-19 16:45:00,
2013-11-19 08:50:00,55.4,54.3,29.79,SSW,202,2.9,2.9,96,0.00,,---,0.00,VWS V14.01,2013-11-19 16:50:00,
2013-11-19 08:55:00,55.4,54.3,29.79,SW,225,2.2,3.1,96,0.00,,---,0.00,VWS V14.01,2013-11-19 16:55:00,
2013-11-19 09:00:00,55.4,54.3,29.79,SSE,158,1.3,2.0,96,0.00,,---,0.00,VWS V14.01,2013-11-19 17:00:00,
2013-11-19 09:05:00,55.4,54.3,29.79,SSE,158,1.6,2.0,96,0.00,,---,0.00,VWS V14.01,2013-11-19 17:05:00,
2013-11-19 09:10:00,55.4,54.3,29.79,SW,225,1.3,2.9,96,0.00,,---,0.00,VWS V14.01,2013-11-19 17:10:00,
2013-11-19 09:15:00,55.4,54.3,29.79,SSW,202,2.5,4.9,96,0.00,,---,0.00,VWS V14.01,2013-11-19 17:15:00,
2013-11-19 09:20:00,55.6,54.5,29.79,SSE,158,1.3,1.3,96,0.00,,---,0.00,VWS V14.01,2013-11-19 17:20:00,
2013-11-19 09:25:00,55.6,54.5,29.79,SSW,202,3.4,3.4,96,0.00,,---,0.00,VWS V14.01,2013-11-19 17:25:00,
2013-11-19 09:30:00,55.6,54.5,29.79,SSE,158,0.0,0.9,96,0.00,,---,0.00,VWS V14.01,2013-11-19 17:30:00,
2013-11-19 09:36:00,55.6,54.5,29.79,SSW,202,0.9,1.6,96,0.00,,---,0.00,VWS V14.01,2013-11-19 17:36:00,
2013-11-19 09:39:00,55.6,54.5,29.79,SSW,202,0.9,1.6,96,0.00,,---,0.00,VWS V14.01,2013-11-19 17:39:00,
2013-11-19 09:40:00,54.7,53.6,29.82,NNW,338,1.6,5.4,96,0.00,,---,0.00,VWS V14.01,2013-11-19 17:40:00,
2013-11-19 09:44:00,55.6,54.5,29.79,WSW,248,3.4,3.4,96,0.00,,---,0.00,VWS V14.01,2013-11-19 17:44:00,
2013-11-19 09:49:00,55.6,54.5,29.79,SW,225,3.1,3.4,96,0.00,,---,0.00,VWS V14.01,2013-11-19 17:49:00,
2013-11-19 09:50:00,54.3,53.2,29.82,NNW,338,4.3,4.3,96,0.00,,---,0.00,VWS V14.01,2013-11-19 17:50:00,
2013-11-19 09:54:00,55.6,54.5,29.79,SW,225,2.5,3.8,96,0.00,,---,0.00,VWS V14.01,2013-11-19 17:54:00,
2013-11-19 09:59:00,55.6,54.5,29.79,SW,225,1.6,3.8,96,0.00,,---,0.00,VWS V14.01,2013-11-19 17:59:00,
2013-11-19 10:00:00,53.8,52.7,29.82,NW,315,3.4,4.3,96,0.00,,---,0.00,VWS V14.01,2013-11-19 18:00:00,
2013-11-19 10:04:00,55.6,54.5,29.82,WNW,292,2.9,2.9,96,0.00,,---,0.00,VWS V14.01,2013-11-19 18:04:00,
2013-11-19 10:09:00,55.6,54.5,29.82,WSW,248,3.4,3.4,96,0.00,,---,0.00,VWS V14.01,2013-11-19 18:09:00,
2013-11-19 10:10:00,53.6,52.5,29.82,NNW,338,3.1,5.8,96,0.00,,---,0.00,VWS V14.01,2013-11-19 18:10:00,
2013-11-19 10:14:00,55.6,54.5,29.82,SW,225,2.7,3.4,96,0.00,,---,0.00,VWS V14.01,2013-11-19 18:14:00,
2013-11-19 10:19:00,55.6,54.5,29.82,NNW,338,1.1,4.0,96,0.00,,---,0.00,VWS V14.01,2013-11-19 18:19:00,
2013-11-19 10:20:00,53.2,52.4,29.82,WNW,292,3.1,3.1,97,0.00,,---,0.00,VWS V14.01,2013-11-19 18:20:00,
2013-11-19 10:24:00,55.4,54.3,29.82,North,0,3.4,3.4,96,0.00,,---,0.00,VWS V14.01,2013-11-19 18:24:00,
2013-11-19 10:29:00,55.0,53.9,29.82,North,0,3.4,3.4,96,0.00,,---,0.00,VWS V14.01,2013-11-19 18:29:00,
2013-11-19 10:30:00,53.2,52.4,29.82,NNW,338,3.8,3.8,97,0.00,,---,0.00,VWS V14.01,2013-11-19 18:30:00,
2013-11-19 10:34:00,54.7,53.6,29.82,NW,315,3.6,5.4,96,0.00,,---,0.00,VWS V14.01,2013-11-19 18:34:00,
2013-11-19 10:39:00,54.7,53.6,29.82,WNW,292,3.1,5.4,96,0.00,,---,0.00,VWS V14.01,2013-11-19 18:39:00,
2013-11-19 10:40:00,53.1,52.2,29.82,North,0,4.3,4.3,97,0.00,,---,0.00,VWS V14.01,2013-11-19 18:40:00,
2013-11-19 10:44:00,54.3,53.2,29.82,WNW,292,3.1,3.1,96,0.00,,---,0.00,VWS V14.01,2013-11-19 18:44:00,
2013-11-19 10:49:00,54.3,53.2,29.82,NNW,338,4.3,4.3,96,0.00,,---,0.00,VWS V14.01,2013-11-19 18:49:00,
2013-11-19 10:50:00,52.7,51.9,29.82,ENE,68,4.0,4.9,97,0.00,,---,0.00,VWS V14.01,2013-11-19 18:50:00,
2013-11-19 10:54:00,54.1,53.0,29.82,NNW,338,3.6,4.3,96,0.00,,---,0.00,VWS V14.01,2013-11-19 18:54:00,
2013-11-19 10:59:00,53.8,52.7,29.82,NW,315,3.4,4.3,96,0.00,,---,0.00,VWS V14.01,2013-11-19 18:59:00,
2013-11-19 11:00:00,52.7,51.9,29.82,NNW,338,7.4,7.4,97,0.00,,---,0.00,VWS V14.01,2013-11-19 19:00:00,
2013-11-19 11:04:00,53.8,52.7,29.82,NNW,338,1.3,5.8,96,0.00,,---,0.00,VWS V14.01,2013-11-19 19:04:00,
2013-11-19 11:09:00,53.6,52.5,29.82,NNW,338,3.1,5.8,96,0.00,,---,0.00,VWS V14.01,2013-11-19 19:09:00,
2013-11-19 11:10:00,53.6,52.5,29.82,NNW,338,3.1,5.8,96,0.00,,---,0.00,VWS V14.01,2013-11-19 19:10:00,
2013-11-19 11:15:00,53.4,52.6,29.82,WNW,292,3.1,3.1,97,0.00,,---,0.00,VWS V14.01,2013-11-19 19:15:00,
2013-11-19 11:20:00,53.2,52.4,29.82,WNW,292,3.1,3.1,97,0.00,,---,0.00,VWS V14.01,2013-11-19 19:20:00,
2013-11-19 11:25:00,53.1,52.2,29.82,WNW,292,3.1,3.1,97,0.00,,---,0.00,VWS V14.01,2013-11-19 19:25:00,
2013-11-19 11:30:00,53.2,52.4,29.82,NNW,338,3.8,3.8,97,0.00,,---,0.00,VWS V14.01,2013-11-19 19:30:00,
2013-11-19 11:35:00,53.1,52.2,29.82,NNW,338,3.8,3.8,97,0.00,,---,0.00,VWS V14.01,2013-11-19 19:35:00,
2013-11-19 11:40:00,53.1,52.2,29.82,North,0,4.3,4.3,97,0.00,,---,0.00,VWS V14.01,2013-11-19 19:40:00,
2013-11-19 11:45:00,53.1,52.2,29.82,North,0,4.3,4.3,97,0.00,,---,0.00,VWS V14.01,2013-11-19 19:45:00,
2013-11-19 11:50:00,52.5,51.7,29.82,NNW,338,4.3,4.3,97,0.00,,---,0.00,VWS V14.01,2013-11-19 19:50:00,
2013-11-19 11:55:00,52.9,52.0,29.82,NE,45,6.9,6.9,97,0.00,,---,0.00,VWS V14.01,2013-11-19 19:55:00,
2013-11-19 12:00:00,52.7,51.9,29.82,WNW,292,3.1,7.4,97,0.00,,---,0.00,VWS V14.01,2013-11-19 20:00:00,
2013-11-19 12:05:00,52.7,51.9,29.82,WNW,292,1.3,7.4,97,0.00,,---,0.00,VWS V14.01,2013-11-19 20:05:00,
2013-11-19 12:10:00,52.5,51.7,29.82,NW,315,3.4,3.4,97,0.00,,---,0.00,VWS V14.01,2013-11-19 20:10:00,
2013-11-19 12:16:00,52.5,51.4,29.82,NNW,338,2.2,6.3,96,0.00,,---,0.00,VWS V14.01,2013-11-19 20:16:00,
2013-11-19 12:20:00,52.5,51.4,29.82,NNW,338,4.3,5.4,96,0.00,,---,0.00,VWS V14.01,2013-11-19 20:20:00,
2013-11-19 12:21:00,52.5,51.7,29.82,NW,315,4.3,4.3,97,0.00,,---,0.00,VWS V14.01,2013-11-19 20:21:00,
2013-11-19 12:26:00,52.3,51.2,29.82,North,0,6.5,6.5,96,0.00,,---,0.00,VWS V14.01,2013-11-19 20:26:00,
2013-11-19 12:30:00,52.5,51.4,29.82,NNW,338,2.7,4.3,96,0.00,,---,0.00,VWS V14.01,2013-11-19 20:30:00,
2013-11-19 12:31:00,52.3,51.2,29.82,WNW,292,3.1,3.6,96,0.00,,---,0.00,VWS V14.01,2013-11-19 20:31:00,
2013-11-19 12:36:00,52.5,51.4,29.82,NNW,338,2.0,3.6,96,0.00,,---,0.00,VWS V14.01,2013-11-19 20:36:00,
2013-11-19 12:40:00,52.3,51.2,29.82,NNW,338,1.1,2.7,96,0.00,,---,0.00,VWS V14.01,2013-11-19 20:40:00,
2013-11-19 12:41:00,52.5,51.4,29.82,NNE,22,2.9,2.9,96,0.00,,---,0.00,VWS V14.01,2013-11-19 20:41:00,
2013-11-19 12:46:00,52.5,51.4,29.82,North,0,2.5,2.9,96,0.00,,---,0.00,VWS V14.01,2013-11-19 20:46:00,
2013-11-19 12:50:00,52.2,51.1,29.82,NNW,338,1.6,3.4,96,0.00,,---,0.00,VWS V14.01,2013-11-19 20:50:00,
2013-11-19 12:51:00,52.5,51.4,29.82,WNW,292,0.0,0.0,96,0.00,,---,0.00,VWS V14.01,2013-11-19 20:51:00,
2013-11-19 12:56:00,52.5,51.4,29.82,WNW,292,3.4,3.4,96,0.00,,---,0.00,VWS V14.01,2013-11-19 20:56:00,
2013-11-19 13:00:00,52.0,50.6,29.82,WNW,292,3.6,3.6,95,0.00,,---,0.00,VWS V14.01,2013-11-19 21:00:00,
2013-11-19 13:01:00,52.3,51.2,29.82,WNW,292,3.4,3.4,96,0.00,,---,0.00,VWS V14.01,2013-11-19 21:01:00,
2013-11-19 13:06:00,52.3,51.2,29.82,NW,315,6.5,6.5,96,0.00,,---,0.00,VWS V14.01,2013-11-19 21:06:00,
2013-11-19 13:10:00,51.6,50.5,29.82,NNW,338,3.4,3.6,96,0.00,,---,0.00,VWS V14.01,2013-11-19 21:10:00,
2013-11-19 13:11:00,52.5,51.4,29.82,NNW,338,4.0,5.4,96,0.00,,---,0.00,VWS V14.01,2013-11-19 21:11:00,
2013-11-19 13:16:00,52.7,51.6,29.82,NNW,338,4.0,5.4,96,0.00,,---,0.00,VWS V14.01,2013-11-19 21:16:00,
2013-11-19 13:20:00,51.6,50.5,29.82,NNW,338,3.4,3.4,96,0.00,,---,0.00,VWS V14.01,2013-11-19 21:20:00,
2013-11-19 13:21:00,52.5,51.4,29.82,NNW,338,4.3,4.3,96,0.00,,---,0.00,VWS V14.01,2013-11-19 21:21:00,
2013-11-19 13:26:00,52.5,51.4,29.82,NNW,338,2.7,4.3,96,0.00,,---,0.00,VWS V14.01,2013-11-19 21:26:00,
2013-11-19 13:30:00,51.4,50.1,29.82,WNW,292,4.3,4.3,95,0.00,,---,0.00,VWS V14.01,2013-11-19 21:30:00,
2013-11-19 13:31:00,52.5,51.4,29.82,NNW,338,1.1,2.7,96,0.00,,---,0.00,VWS V14.01,2013-11-19 21:31:00,
2013-11-19 13:36:00,52.3,51.2,29.82,NNW,338,1.1,2.7,96,0.00,,---,0.00,VWS V14.01,2013-11-19 21:36:00,
2013-11-19 13:40:00,51.3,49.6,29.82,WNW,292,4.3,4.3,94,0.00,,---,0.00,VWS V14.01,2013-11-19 21:40:00,
2013-11-19 13:41:00,52.2,51.1,29.82,NW,315,3.4,3.4,96,0.00,,---,0.00,VWS V14.01,2013-11-19 21:41:00,
2013-11-19 13:46:00,52.2,51.1,29.82,NNW,338,1.6,3.4,96,0.00,,---,0.00,VWS V14.01,2013-11-19 21:46:00,
2013-11-19 13:50:00,50.9,49.2,29.82,NE,45,4.0,4.3,94,0.00,,---,0.00,VWS V14.01,2013-11-19 21:50:00,
2013-11-19 13:51:00,52.2,50.8,29.82,NNW,338,0.9,1.6,95,0.00,,---,0.00,VWS V14.01,2013-11-19 21:51:00,
2013-11-19 13:56:00,52.0,50.6,29.82,WNW,292,3.6,3.6,95,0.00,,---,0.00,VWS V14.01,2013-11-19 21:56:00,
2013-11-19 14:00:00,50.7,49.1,29.82,NNW,338,6.3,6.3,94,0.00,,---,0.00,VWS V14.01,2013-11-19 22:00:00,
2013-11-19 14:01:00,51.8,50.4,29.82,WNW,292,3.6,3.6,95,0.00,,---,0.00,VWS V14.01,2013-11-19 22:01:00,
2013-11-19 14:06:00,51.8,50.4,29.82,WNW,292,3.6,3.6,95,0.00,,---,0.00,VWS V14.01,2013-11-19 22:06:00,
2013-11-19 14:10:00,50.5,48.9,29.82,WSW,248,6.0,6.3,94,0.00,,---,0.00,VWS V14.01,2013-11-19 22:10:00,
2013-11-19 14:11:00,51.6,50.5,29.82,NNW,338,3.4,3.4,96,0.00,,---,0.00,VWS V14.01,2013-11-19 22:11:00,
2013-11-19 14:16:00,51.6,50.5,29.82,NNW,338,3.4,3.4,96,0.00,,---,0.00,VWS V14.01,2013-11-19 22:16:00,
2013-11-19 14:20:00,50.4,48.7,29.82,WSW,248,6.0,6.0,94,0.00,,---,0.00,VWS V14.01,2013-11-19 22:20:00,
2013-11-19 14:21:00,51.6,50.5,29.82,WNW,292,4.3,4.3,96,0.00,,---,0.00,VWS V14.01,2013-11-19 22:21:00,
2013-11-19 14:26:00,51.4,50.1,29.82,WNW,292,4.3,4.3,95,0.00,,---,0.00,VWS V14.01,2013-11-19 22:26:00,
2013-11-19 14:30:00,50.2,48.5,29.82,WSW,248,6.0,6.0,94,0.00,,---,0.00,VWS V14.01,2013-11-19 22:30:00,
2013-11-19 14:32:00,51.4,50.1,29.82,WNW,292,4.3,4.3,95,0.00,,---,0.00,VWS V14.01,2013-11-19 22:32:00,
2013-11-19 14:37:00,51.3,49.6,29.82,WNW,292,4.3,4.3,94,0.00,,---,0.00,VWS V14.01,2013-11-19 22:37:00,
2013-11-19 14:40:00,50.0,48.3,29.82,WNW,292,4.0,6.0,94,0.00,,---,0.00,VWS V14.01,2013-11-19 22:40:00,
2013-11-19 14:42:00,51.1,49.4,29.82,WNW,292,4.3,4.3,94,0.00,,---,0.00,VWS V14.01,2013-11-19 22:42:00,
2013-11-19 14:47:00,50.9,49.2,29.82,NE,45,4.0,4.3,94,0.00,,---,0.00,VWS V14.01,2013-11-19 22:47:00,
2013-11-19 14:50:00,49.8,48.2,29.85,WNW,292,4.0,4.0,94,0.00,,---,0.00,VWS V14.01,2013-11-19 22:50:00,
2013-11-19 14:52:00,50.9,49.2,29.82,NE,45,4.0,4.0,94,0.00,,---,0.00,VWS V14.01,2013-11-19 22:52:00,
2013-11-19 14:57:00,50.7,49.1,29.82,NNW,338,6.3,6.3,94,0.00,,---,0.00,VWS V14.01,2013-11-19 22:57:00,
2013-11-19 15:00:00,49.6,48.0,29.85,WNW,292,4.0,4.0,94,0.00,,---,0.00,VWS V14.01,2013-11-19 23:00:00,
2013-11-19 15:06:00,50.5,48.9,29.82,NNW,338,6.3,6.3,94,0.00,,---,0.00,VWS V14.01,2013-11-19 23:06:00,
2013-11-19 15:10:00,49.8,48.2,29.85,WNW,292,4.0,4.0,94,0.00,,---,0.00,VWS V14.01,2013-11-19 23:10:00,
2013-11-19 15:11:00,50.5,48.9,29.82,WSW,248,6.0,6.0,94,0.00,,---,0.00,VWS V14.01,2013-11-19 23:11:00,
2013-11-19 15:16:00,50.4,48.7,29.82,WSW,248,6.0,6.0,94,0.00,,---,0.00,VWS V14.01,2013-11-19 23:16:00,
2013-11-19 15:20:00,49.8,48.2,29.85,WNW,292,4.0,4.0,94,0.00,,---,0.00,VWS V14.01,2013-11-19 23:20:00,
2013-11-19 15:21:00,50.4,48.7,29.82,WSW,248,6.0,6.0,94,0.00,,---,0.00,VWS V14.01,2013-11-19 23:21:00,
2013-11-19 15:26:00,50.2,48.5,29.82,WSW,248,6.0,6.0,94,0.00,,---,0.00,VWS V14.01,2013-11-19 23:26:00,
2013-11-19 15:30:00,49.6,48.0,29.85,NNE,22,2.5,4.0,94,0.00,,---,0.00,VWS V14.01,2013-11-19 23:30:00,
2013-11-19 15:31:00,50.2,48.5,29.82,WSW,248,6.0,6.0,94,0.00,,---,0.00,VWS V14.01,2013-11-19 23:31:00,
2013-11-19 15:36:00,50.0,48.3,29.82,WNW,292,4.0,6.0,94,0.00,,---,0.00,VWS V14.01,2013-11-19 23:36:00,
2013-11-19 15:40:00,49.6,48.0,29.85,NNW,338,1.3,2.5,94,0.00,,---,0.00,VWS V14.01,2013-11-19 23:40:00,
2013-11-19 15:41:00,50.0,48.3,29.82,WNW,292,4.0,4.0,94,0.00,,---,0.00,VWS V14.01,2013-11-19 23:41:00,
2013-11-19 15:46:00,50.0,48.3,29.82,WNW,292,4.0,4.0,94,0.00,,---,0.00,VWS V14.01,2013-11-19 23:46:00,
2013-11-19 15:50:00,49.5,47.8,29.85,NNW,338,1.3,1.3,94,0.00,,---,0.00,VWS V14.01,2013-11-19 23:50:00,
2013-11-19 15:51:00,49.8,48.2,29.85,WNW,292,4.0,4.0,94,0.00,,---,0.00,VWS V14.01,2013-11-19 23:51:00,
2013-11-19 15:56:00,49.8,48.2,29.85,WNW,292,4.0,4.0,94,0.00,,---,0.00,VWS V14.01,2013-11-19 23:56:00,
2013-11-19 16:00:00,49.5,47.8,29.85,NNW,338,1.3,1.3,94,0.00,,---,0.00,VWS V14.01,2013-11-20 00:00:00,
2013-11-19 16:01:00,49.6,48.0,29.85,WNW,292,4.0,4.0,94,0.00,,---,0.00,VWS V14.01,2013-11-20 00:01:00,
2013-11-19 16:08:00,49.8,48.2,29.85,WNW,292,4.0,4.0,94,0.00,,---,0.00,VWS V14.01,2013-11-20 00:08:00,
2013-11-19 16:10:00,49.3,47.6,29.85,NNW,338,1.3,1.3,94,0.00,,---,0.00,VWS V14.01,2013-11-20 00:10:00,
2013-11-19 16:13:00,49.8,48.2,29.85,WNW,292,4.0,4.0,94,0.00,,---,0.00,VWS V14.01,2013-11-20 00:13:00,
2013-11-19 16:18:00,49.8,48.2,29.85,WNW,292,4.0,4.0,94,0.00,,---,0.00,VWS V14.01,2013-11-20 00:18:00,
2013-11-19 16:20:00,49.3,47.6,29.85,NNW,338,1.3,1.3,94,0.00,,---,0.00,VWS V14.01,2013-11-20 00:20:00,
2013-11-19 16:23:00,49.6,48.0,29.85,NNE,22,2.5,4.0,94,0.00,,---,0.00,VWS V14.01,2013-11-20 00:23:00,
2013-11-19 16:28:00,49.6,48.0,29.85,NNE,22,2.5,4.0,94,0.00,,---,0.00,VWS V14.01,2013-11-20 00:28:00,
2013-11-19 16:30:00,49.1,47.5,29.85,NNW,338,1.3,1.3,94,0.00,,---,0.00,VWS V14.01,2013-11-20 00:30:00,
2013-11-19 16:33:00,49.6,48.0,29.85,NNE,22,2.5,2.5,94,0.00,,---,0.00,VWS V14.01,2013-11-20 00:33:00,
2013-11-19 16:38:00,49.6,48.0,29.85,NNW,338,1.3,2.5,94,0.00,,---,0.00,VWS V14.01,2013-11-20 00:38:00,
2013-11-19 16:40:00,48.9,47.3,29.85,NNW,338,1.3,1.3,94,0.00,,---,0.00,VWS V14.01,2013-11-20 00:40:00,
2013-11-19 16:43:00,49.6,48.0,29.85,NNW,338,1.3,1.3,94,0.00,,---,0.00,VWS V14.01,2013-11-20 00:43:00,
2013-11-19 16:48:00,49.5,47.8,29.85,NNW,338,1.3,1.3,94,0.00,,---,0.00,VWS V14.01,2013-11-20 00:48:00,
2013-11-19 16:53:00,49.5,47.8,29.85,NNW,338,1.3,1.3,94,0.00,,---,0.00,VWS V14.01,2013-11-20 00:53:00,
2013-11-19 16:58:00,49.5,47.8,29.85,NNW,338,1.3,1.3,94,0.00,,---,0.00,VWS V14.01,2013-11-20 00:58:00,
2013-11-19 17:00:00,48.9,47.3,29.85,NNW,338,1.3,1.3,94,0.00,,---,0.00,VWS V14.01,2013-11-20 01:00:00,
2013-11-19 17:03:00,49.5,47.8,29.85,NNW,338,1.3,1.3,94,0.00,,---,0.00,VWS V14.01,2013-11-20 01:03:00,
2013-11-19 17:09:00,49.5,47.8,29.85,NNW,338,1.3,1.3,94,0.00,,---,0.00,VWS V14.01,2013-11-20 01:09:00,
2013-11-19 17:10:00,48.9,47.3,29.85,NNW,338,1.3,1.3,94,0.00,,---,0.00,VWS V14.01,2013-11-20 01:10:00,
2013-11-19 17:14:00,49.3,47.6,29.85,NNW,338,1.3,1.3,94,0.00,,---,0.00,VWS V14.01,2013-11-20 01:14:00,
2013-11-19 17:19:00,49.3,47.6,29.85,NNW,338,1.3,1.3,94,0.00,,---,0.00,VWS V14.01,2013-11-20 01:19:00,
2013-11-19 17:20:00,48.7,47.1,29.85,North,0,2.2,2.9,94,0.00,,---,0.00,VWS V14.01,2013-11-20 01:20:00,
2013-11-19 17:24:00,49.1,47.5,29.85,NNW,338,1.3,1.3,94,0.00,,---,0.00,VWS V14.01,2013-11-20 01:24:00,
2013-11-19 17:29:00,49.1,47.5,29.85,NNW,338,1.3,1.3,94,0.00,,---,0.00,VWS V14.01,2013-11-20 01:29:00,
2013-11-19 17:30:00,48.7,47.1,29.85,NNE,22,3.8,3.8,94,0.00,,---,0.00,VWS V14.01,2013-11-20 01:30:00,
2013-11-19 17:34:00,48.9,47.3,29.85,NNW,338,1.3,1.3,94,0.00,,---,0.00,VWS V14.01,2013-11-20 01:34:00,
2013-11-19 17:39:00,48.9,47.3,29.85,NNW,338,1.3,1.3,94,0.00,,---,0.00,VWS V14.01,2013-11-20 01:39:00,
2013-11-19 17:40:00,48.6,46.9,29.85,NNW,338,1.1,3.8,94,0.00,,---,0.00,VWS V14.01,2013-11-20 01:40:00,
2013-11-19 17:44:00,48.9,47.3,29.85,NNW,338,1.3,1.3,94,0.00,,---,0.00,VWS V14.01,2013-11-20 01:44:00,
2013-11-19 17:49:00,48.9,47.3,29.85,NNW,338,1.3,1.3,94,0.00,,---,0.00,VWS V14.01,2013-11-20 01:49:00,
2013-11-19 17:50:00,48.4,46.7,29.85,North,0,3.8,3.8,94,0.00,,---,0.00,VWS V14.01,2013-11-20 01:50:00,
2013-11-19 17:54:00,48.9,47.3,29.85,NNW,338,1.3,1.3,94,0.00,,---,0.00,VWS V14.01,2013-11-20 01:54:00,
2013-11-19 17:59:00,48.9,47.3,29.85,NNW,338,1.3,1.3,94,0.00,,---,0.00,VWS V14.01,2013-11-20 01:59:00,
2013-11-19 18:00:00,48.0,46.4,29.85,NNE,22,2.9,4.7,94,0.00,,---,0.00,VWS V14.01,2013-11-20 02:00:00,
2013-11-19 18:04:00,48.9,47.3,29.85,NNW,338,1.3,1.3,94,0.00,,---,0.00,VWS V14.01,2013-11-20 02:04:00,
2013-11-19 18:09:00,48.9,47.3,29.85,NNW,338,1.3,1.3,94,0.00,,---,0.00,VWS V14.01,2013-11-20 02:09:00,
2013-11-19 18:10:00,48.0,46.4,29.85,NW,315,3.6,3.6,94,0.00,,---,0.00,VWS V14.01,2013-11-20 02:10:00,
2013-11-19 18:14:00,48.9,47.3,29.85,NNW,338,2.9,2.9,94,0.00,,---,0.00,VWS V14.01,2013-11-20 02:14:00,
2013-11-19 18:19:00,48.7,47.1,29.85,North,0,2.2,2.9,94,0.00,,---,0.00,VWS V14.01,2013-11-20 02:19:00,
2013-11-19 18:20:00,48.0,46.4,29.88,NNW,338,2.5,3.6,94,0.00,,---,0.00,VWS V14.01,2013-11-20 02:20:00,
2013-11-19 18:24:00,48.7,47.1,29.85,NNE,22,3.8,3.8,94,0.00,,---,0.00,VWS V14.01,2013-11-20 02:24:00,
2013-11-19 18:29:00,48.7,47.1,29.85,NNE,22,3.8,3.8,94,0.00,,---,0.00,VWS V14.01,2013-11-20 02:29:00,
2013-11-19 18:30:00,48.0,46.4,29.88,North,0,0.0,2.7,94,0.00,,---,0.00,VWS V14.01,2013-11-20 02:30:00,
2013-11-19 18:34:00,48.7,47.1,29.85,NNW,338,1.1,3.8,94,0.00,,---,0.00,VWS V14.01,2013-11-20 02:34:00,
2013-11-19 18:39:00,48.6,46.9,29.85,NNW,338,1.1,3.8,94,0.00,,---,0.00,VWS V14.01,2013-11-20 02:39:00,
2013-11-19 18:40:00,47.8,46.2,29.88,WNW,292,0.0,3.8,94,0.00,,---,0.00,VWS V14.01,2013-11-20 02:40:00,
2013-11-19 18:44:00,48.4,46.7,29.85,North,0,3.8,3.8,94,0.00,,---,0.00,VWS V14.01,2013-11-20 02:44:00,
2013-11-19 18:49:00,48.4,46.7,29.85,North,0,3.8,3.8,94,0.00,,---,0.00,VWS V14.01,2013-11-20 02:49:00,
2013-11-19 18:50:00,47.8,46.2,29.88,NNE,22,0.0,3.6,94,0.00,,---,0.00,VWS V14.01,2013-11-20 02:50:00,
2013-11-19 18:54:00,48.2,46.6,29.85,NNW,338,4.7,4.7,94,0.00,,---,0.00,VWS V14.01,2013-11-20 02:54:00,
2013-11-19 18:59:00,48.0,46.4,29.85,NNE,22,2.9,4.7,94,0.00,,---,0.00,VWS V14.01,2013-11-20 02:59:00,
2013-11-19 19:00:00,47.7,46.0,29.88,NNE,22,2.7,2.9,94,0.00,,---,0.00,VWS V14.01,2013-11-20 03:00:00,
2013-11-19 19:04:00,48.0,46.4,29.85,NW,315,3.6,3.6,94,0.00,,---,0.00,VWS V14.01,2013-11-20 03:04:00,
2013-11-19 19:09:00,48.0,46.4,29.85,NW,315,3.6,3.6,94,0.00,,---,0.00,VWS V14.01,2013-11-20 03:09:00,
2013-11-19 19:10:00,47.5,45.8,29.88,NNE,22,2.7,3.1,94,0.00,,---,0.00,VWS V14.01,2013-11-20 03:10:00,
2013-11-19 19:14:00,48.0,46.4,29.85,NNW,338,2.5,3.6,94,0.00,,---,0.00,VWS V14.01,2013-11-20 03:14:00,
2013-11-19 19:20:00,48.0,46.4,29.88,NNW,338,2.5,3.6,94,0.00,,---,0.00,VWS V14.01,2013-11-20 03:20:00,
2013-11-19 19:25:00,47.8,46.2,29.88,North,0,0.0,2.7,94,0.00,,---,0.00,VWS V14.01,2013-11-20 03:25:00,
2013-11-19 19:30:00,48.0,46.4,29.88,North,0,0.0,0.0,94,0.00,,---,0.00,VWS V14.01,2013-11-20 03:30:00,
2013-11-19 19:35:00,47.8,46.2,29.88,NNW,338,0.0,0.0,94,0.00,,---,0.00,VWS V14.01,2013-11-20 03:35:00,
2013-11-19 19:40:00,47.8,46.2,29.88,WNW,292,0.0,0.0,94,0.00,,---,0.00,VWS V14.01,2013-11-20 03:40:00,
2013-11-19 19:45:00,47.8,46.2,29.88,NNW,338,3.1,3.6,94,0.00,,---,0.00,VWS V14.01,2013-11-20 03:45:00,
2013-11-19 19:50:00,47.8,46.2,29.88,NNE,22,0.0,0.0,94,0.00,,---,0.00,VWS V14.01,2013-11-20 03:50:00,
2013-11-19 19:55:00,47.7,46.0,29.88,NNW,338,2.9,2.9,94,0.00,,---,0.00,VWS V14.01,2013-11-20 03:55:00,
2013-11-19 20:00:00,47.7,46.0,29.88,NNE,22,2.7,2.7,94,0.00,,---,0.00,VWS V14.01,2013-11-20 04:00:00,
2013-11-19 20:05:00,47.5,45.8,29.88,NW,315,2.2,2.7,94,0.00,,---,0.00,VWS V14.01,2013-11-20 04:05:00,
2013-11-19 20:10:00,47.5,45.8,29.88,NNE,22,2.7,2.7,94,0.00,,---,0.00,VWS V14.01,2013-11-20 04:10:00,
2013-11-19 20:15:00,47.5,45.8,29.88,NNW,338,2.9,3.6,94,0.00,,---,0.00,VWS V14.01,2013-11-20 04:15:00,
2013-11-19 20:20:00,47.5,45.8,29.88,NNW,338,0.9,0.9,94,0.00,,---,0.00,VWS V14.01,2013-11-20 04:20:00,
2013-11-19 20:25:00,47.5,45.8,29.88,WSW,248,0.0,0.9,94,0.00,,---,0.00,VWS V14.01,2013-11-20 04:25:00,
2013-11-19 20:30:00,47.3,45.7,29.88,WSW,248,0.0,0.0,94,0.00,,---,0.00,VWS V14.01,2013-11-20 04:30:00,
2013-11-19 20:35:00,47.3,45.7,29.88,North,0,0.0,0.0,94,0.00,,---,0.00,VWS V14.01,2013-11-20 04:35:00,
2013-11-19 20:40:00,47.3,45.7,29.88,NNW,338,2.9,2.9,94,0.00,,---,0.00,VWS V14.01,2013-11-20 04:40:00,
2013-11-19 20:45:00,47.1,45.5,29.88,NW,315,1.6,3.6,94,0.00,,---,0.00,VWS V14.01,2013-11-20 04:45:00,
2013-11-19 20:50:00,47.1,45.5,29.91,NW,315,1.6,1.6,94,0.00,,---,0.00,VWS V14.01,2013-11-20 04:50:00,
2013-11-19 20:56:00,47.1,45.5,29.91,WNW,292,2.0,4.7,94,0.00,,---,0.00,VWS V14.01,2013-11-20 04:56:00,
2013-11-19 21:00:00,46.2,44.9,29.91,NW,315,3.8,6.0,95,0.00,,---,0.00,VWS V14.01,2013-11-20 05:00:00,
2013-11-19 21:01:00,47.1,45.5,29.91,North,0,2.0,2.0,94,0.00,,---,0.00,VWS V14.01,2013-11-20 05:01:00,
2013-11-19 21:02:00,47.1,45.5,29.91,North,0,2.0,2.0,94,0.00,,---,0.00,VWS V14.01,2013-11-20 05:02:00,
2013-11-19 21:03:00,47.1,45.5,29.91,NNW,338,4.3,4.3,94,0.00,,---,0.00,VWS V14.01,2013-11-20 05:03:00,
2013-11-19 21:06:00,47.1,45.5,29.91,NNW,338,4.3,4.3,94,0.00,,---,0.00,VWS V14.01,2013-11-20 05:06:00,
2013-11-19 21:10:00,46.0,44.7,29.91,NNW,338,4.3,4.7,95,0.00,,---,0.00,VWS V14.01,2013-11-20 05:10:00,
2013-11-19 21:11:00,47.1,45.5,29.91,NNW,338,6.3,6.3,94,0.00,,---,0.00,VWS V14.01,2013-11-20 05:11:00,
2013-11-19 21:16:00,46.9,45.3,29.91,NNW,338,5.6,6.3,94,0.00,,---,0.00,VWS V14.01,2013-11-20 05:16:00,
2013-11-19 21:20:00,46.0,44.7,29.91,WNW,292,6.5,6.5,95,0.00,,---,0.00,VWS V14.01,2013-11-20 05:20:00,
2013-11-19 21:21:00,46.9,45.3,29.91,North,0,0.0,2.7,94,0.00,,---,0.00,VWS V14.01,2013-11-20 05:21:00,
2013-11-19 21:26:00,46.8,45.1,29.91,WNW,292,9.2,9.2,94,0.00,,---,0.00,VWS V14.01,2013-11-20 05:26:00,
2013-11-19 21:30:00,45.7,44.3,29.91,NNW,338,2.9,6.5,95,0.00,,---,0.00,VWS V14.01,2013-11-20 05:30:00,
2013-11-19 21:31:00,46.6,45.0,29.91,NNW,338,0.9,9.6,94,0.00,,---,0.00,VWS V14.01,2013-11-20 05:31:00,
2013-11-19 21:36:00,46.6,45.0,29.91,NNW,338,2.5,9.6,94,0.00,,---,0.00,VWS V14.01,2013-11-20 05:36:00,
2013-11-19 21:40:00,45.5,44.2,29.91,NNW,338,3.8,3.8,95,0.00,,---,0.00,VWS V14.01,2013-11-20 05:40:00,
2013-11-19 21:41:00,46.4,44.8,29.91,SE,135,2.0,2.5,94,0.00,,---,0.00,VWS V14.01,2013-11-20 05:41:00,
2013-11-19 21:46:00,46.4,44.8,29.91,North,0,3.6,4.5,94,0.00,,---,0.00,VWS V14.01,2013-11-20 05:46:00,
2013-11-19 21:50:00,45.3,44.0,29.94,NNW,338,7.6,7.6,95,0.00,,---,0.00,VWS V14.01,2013-11-20 05:50:00,
2013-11-19 21:51:00,46.2,44.9,29.91,NNW,338,6.0,6.0,95,0.00,,---,0.00,VWS V14.01,2013-11-20 05:51:00,
2013-11-19 21:56:00,46.2,44.9,29.91,NNW,338,6.0,6.0,95,0.00,,---,0.00,VWS V14.01,2013-11-20 05:56:00,
2013-11-19 22:00:00,45.1,43.8,29.94,NE,45,5.8,8.1,95,0.00,,---,0.00,VWS V14.01,2013-11-20 06:00:00,
2013-11-19 22:01:00,46.2,44.9,29.91,NNW,338,4.7,4.7,95,0.00,,---,0.00,VWS V14.01,2013-11-20 06:01:00,
2013-11-19 22:07:00,46.0,44.7,29.91,NW,315,2.7,4.7,95,0.00,,---,0.00,VWS V14.01,2013-11-20 06:07:00,
2013-11-19 22:10:00,44.8,43.4,29.94,NNE,22,5.4,10.5,95,0.00,,---,0.00,VWS V14.01,2013-11-20 06:10:00,
2013-11-19 22:12:00,46.0,44.7,29.91,NNW,338,4.3,4.3,95,0.00,,---,0.00,VWS V14.01,2013-11-20 06:12:00,
2013-11-19 22:17:00,46.0,44.7,29.91,ENE,68,2.9,5.4,95,0.00,,---,0.00,VWS V14.01,2013-11-20 06:17:00,
2013-11-19 22:20:00,44.2,42.9,29.94,NE,45,7.4,7.4,95,0.00,,---,0.00,VWS V14.01,2013-11-20 06:20:00,
2013-11-19 22:22:00,45.9,44.5,29.91,NNW,338,2.7,6.5,95,0.00,,---,0.00,VWS V14.01,2013-11-20 06:22:00,
2013-11-19 22:27:00,45.9,44.5,29.91,NNE,22,2.9,6.5,95,0.00,,---,0.00,VWS V14.01,2013-11-20 06:27:00,
2013-11-19 22:30:00,44.1,42.7,29.94,North,0,8.7,8.7,95,0.00,,---,0.00,VWS V14.01,2013-11-20 06:30:00,
2013-11-19 22:32:00,45.7,44.3,29.91,NNW,338,2.9,2.9,95,0.00,,---,0.00,VWS V14.01,2013-11-20 06:32:00,
2013-11-19 22:37:00,45.5,44.2,29.91,NNE,22,2.9,2.9,95,0.00,,---,0.00,VWS V14.01,2013-11-20 06:37:00,
2013-11-19 22:40:00,43.3,42.3,29.94,NNE,22,4.9,8.7,96,0.00,,---,0.00,VWS V14.01,2013-11-20 06:40:00,
2013-11-19 22:42:00,45.5,44.2,29.91,NNW,338,7.6,7.6,95,0.00,,---,0.00,VWS V14.01,2013-11-20 06:42:00,
2013-11-19 22:47:00,45.3,44.0,29.91,NNW,338,7.6,7.6,95,0.00,,---,0.00,VWS V14.01,2013-11-20 06:47:00,
2013-11-19 22:50:00,42.4,41.4,29.94,South,180,2.5,4.9,96,0.00,,---,0.00,VWS V14.01,2013-11-20 06:50:00,
2013-11-19 22:52:00,45.3,44.0,29.94,NNW,338,8.1,8.1,95,0.00,,---,0.00,VWS V14.01,2013-11-20 06:52:00,
2013-11-19 22:57:00,45.1,43.8,29.94,NNW,338,3.4,8.1,95,0.00,,---,0.00,VWS V14.01,2013-11-20 06:57:00,
2013-11-19 23:00:00,43.3,42.3,29.94,NNE,22,2.9,8.1,96,0.00,,---,0.00,VWS V14.01,2013-11-20 07:00:00,
2013-11-19 23:02:00,45.0,43.6,29.94,North,0,4.9,10.5,95,0.00,,---,0.00,VWS V14.01,2013-11-20 07:02:00,
2013-11-19 23:07:00,44.8,43.4,29.94,North,0,7.2,10.5,95,0.00,,---,0.00,VWS V14.01,2013-11-20 07:07:00,
2013-11-19 23:10:00,43.3,42.3,29.94,NNW,338,2.9,2.9,96,0.00,,---,0.00,VWS V14.01,2013-11-20 07:10:00,
2013-11-19 23:12:00,44.6,43.3,29.94,WNW,292,2.7,5.4,95,0.00,,---,0.00,VWS V14.01,2013-11-20 07:12:00,
2013-11-19 23:17:00,44.4,43.1,29.94,NE,45,7.4,7.4,95,0.00,,---,0.00,VWS V14.01,2013-11-20 07:17:00,
2013-11-19 23:20:00,43.2,42.1,29.94,NNW,338,2.9,2.9,96,0.00,,---,0.00,VWS V14.01,2013-11-20 07:20:00,
2013-11-19 23:22:00,44.2,42.9,29.94,NNE,22,3.8,7.4,95,0.00,,---,0.00,VWS V14.01,2013-11-20 07:22:00,
2013-11-19 23:27:00,44.1,42.7,29.94,NNE,22,3.8,7.4,95,0.00,,---,0.00,VWS V14.01,2013-11-20 07:27:00,
2013-11-19 23:30:00,42.8,41.7,29.94,East,90,3.6,4.7,96,0.00,,---,0.00,VWS V14.01,2013-11-20 07:30:00,
2013-11-19 23:32:00,44.1,42.7,29.94,NNW,338,1.6,8.7,95,0.00,,---,0.00,VWS V14.01,2013-11-20 07:32:00,
2013-11-19 23:37:00,43.9,42.5,29.94,NNW,338,1.6,8.7,95,0.00,,---,0.00,VWS V14.01,2013-11-20 07:37:00,
2013-11-19 23:40:00,42.8,41.7,29.94,East,90,3.6,3.6,96,0.00,,---,0.00,VWS V14.01,2013-11-20 07:40:00,
2013-11-19 23:42:00,43.0,41.9,29.94,NNE,22,4.9,4.9,96,0.00,,---,0.00,VWS V14.01,2013-11-20 07:42:00,
2013-11-19 23:47:00,42.8,41.7,29.94,South,180,2.5,4.9,96,0.00,,---,0.00,VWS V14.01,2013-11-20 07:47:00,
2013-11-19 23:50:00,42.6,41.6,29.94,NE,45,2.2,3.6,96,0.00,,---,0.00,VWS V14.01,2013-11-20 07:50:00,
2013-11-19 23:52:00,42.4,41.4,29.94,NNE,22,6.9,6.9,96,0.00,,---,0.00,VWS V14.01,2013-11-20 07:52:00,
2013-11-19 23:57:00,42.4,41.4,29.94,WNW,292,8.1,8.1,96,0.00,,---,0.00,VWS V14.01,2013-11-20 07:57:00,